createdAt,value
2023-03-11T00:00:25.579Z,81.72
2023-03-11T00:02:55.056Z,82.05
2023-03-11T00:05:26.824Z,82.00
2023-03-11T00:07:56.051Z,82.20
2023-03-11T00:10:33.038Z,81.55
2023-03-11T00:13:03.308Z,81.38
2023-03-11T00:15:30.940Z,81.76
2023-03-11T00:17:58.872Z,81.66
2023-03-11T00:20:32.090Z,81.89
2023-03-11T00:22:59.855Z,81.98
2023-03-11T00:25:29.536Z,81.38
2023-03-11T00:27:58.137Z,81.45
2023-03-11T00:30:26.002Z,82.08
2023-03-11T00:32:55.291Z,81.88
2023-03-11T00:35:25.849Z,81.88
2023-03-11T00:37:55.619Z,82.18
2023-03-11T00:40:25.028Z,82.31
2023-03-11T00:42:54.257Z,82.14
2023-03-11T00:45:22.110Z,82.12
2023-03-11T00:47:51.015Z,82.73
2023-03-11T00:50:20.972Z,82.87
2023-03-11T00:52:48.850Z,82.95
2023-03-11T00:55:25.207Z,83.35
2023-03-11T00:57:54.966Z,83.66
2023-03-11T01:00:24.152Z,83.97
2023-03-11T01:02:52.552Z,84.02
2023-03-11T01:05:23.681Z,84.28
2023-03-11T01:07:52.180Z,84.45
2023-03-11T01:10:20.713Z,86.28
2023-03-11T01:12:48.516Z,86.37
2023-03-11T01:15:35.972Z,87.15
2023-03-11T01:18:04.392Z,85.93
2023-03-11T01:20:35.012Z,85.90
2023-03-11T01:23:02.694Z,86.69
2023-03-11T01:25:30.381Z,87.16
2023-03-11T01:27:59.611Z,87.80
2023-03-11T01:30:28.326Z,88.25
2023-03-11T01:32:59.837Z,87.31
2023-03-11T01:35:28.537Z,86.98
2023-03-11T01:37:56.562Z,87.24
2023-03-11T01:40:29.998Z,87.16
2023-03-11T01:43:00.795Z,87.79
2023-03-11T01:45:51.322Z,88.29
2023-03-11T01:48:24.238Z,88.02
2023-03-11T01:50:52.134Z,88.03
2023-03-11T01:53:19.719Z,88.39
2023-03-11T01:55:48.584Z,88.22
2023-03-11T01:58:22.782Z,87.17
2023-03-11T02:00:50.849Z,87.46
2023-03-11T02:03:29.604Z,88.23
2023-03-11T02:05:57.851Z,87.87
2023-03-11T02:08:25.553Z,88.35
2023-03-11T02:10:55.997Z,88.71
2023-03-11T02:13:24.261Z,90.15
2023-03-11T02:15:52.180Z,89.59
2023-03-11T02:18:20.975Z,88.73
2023-03-11T02:20:57.713Z,90.52
2023-03-11T02:23:27.806Z,90.60
2023-03-11T02:26:07.303Z,90.79
2023-03-11T02:28:36.350Z,91.81
2023-03-11T02:31:04.415Z,91.17
2023-03-11T02:33:32.963Z,90.22
2023-03-11T02:36:08.200Z,89.88
2023-03-11T02:38:37.866Z,90.42
2023-03-11T02:41:05.882Z,89.83
2023-03-11T02:43:42.049Z,90.23
2023-03-11T02:46:10.811Z,90.12
2023-03-11T02:48:39.486Z,89.73
2023-03-11T02:51:07.307Z,90.11
2023-03-11T02:53:48.101Z,89.88
2023-03-11T02:56:16.582Z,89.34
2023-03-11T02:58:44.115Z,89.44
2023-03-11T03:01:11.980Z,90.10
2023-03-11T03:03:42.297Z,89.44
2023-03-11T03:06:13.027Z,89.10
2023-03-11T03:08:42.628Z,88.73
2023-03-11T03:11:10.150Z,88.80
2023-03-11T03:13:37.799Z,88.93
2023-03-11T03:16:07.180Z,90.28
2023-03-11T03:18:34.821Z,89.00
2023-03-11T03:21:07.320Z,89.35
2023-03-11T03:23:35.327Z,89.22
2023-03-11T03:26:04.013Z,89.29
2023-03-11T03:28:34.315Z,89.42
2023-03-11T03:31:09.363Z,89.25
2023-03-11T03:33:39.961Z,88.57
2023-03-11T03:36:10.063Z,88.78
2023-03-11T03:38:44.004Z,88.37
2023-03-11T03:41:14.714Z,88.53
2023-03-11T03:43:42.913Z,88.48
2023-03-11T03:46:11.735Z,88.68
2023-03-11T03:48:43.224Z,88.89
2023-03-11T03:51:12.604Z,89.54
2023-03-11T03:53:46.736Z,88.89
2023-03-11T03:56:16.791Z,89.35
2023-03-11T03:58:46.206Z,88.92
2023-03-11T04:01:13.919Z,88.69
2023-03-11T04:03:42.658Z,88.55
2023-03-11T04:06:21.710Z,88.33
2023-03-11T04:08:55.984Z,89.02
2023-03-11T04:11:29.214Z,88.85
2023-03-11T04:13:58.670Z,88.89
2023-03-11T04:16:31.333Z,88.92
2023-03-11T04:19:05.884Z,88.66
2023-03-11T04:21:34.281Z,88.45
2023-03-11T04:24:02.565Z,89.08
2023-03-11T04:26:34.488Z,89.53
2023-03-11T04:29:02.724Z,89.21
2023-03-11T04:31:34.277Z,89.15
2023-03-11T04:34:08.611Z,89.30
2023-03-11T04:36:38.498Z,89.18
2023-03-11T04:39:07.406Z,88.55
2023-03-11T04:41:43.889Z,88.73
2023-03-11T04:44:15.644Z,88.43
2023-03-11T04:46:45.945Z,88.79
2023-03-11T04:49:14.042Z,88.59
2023-03-11T04:51:41.989Z,88.62
2023-03-11T04:54:10.575Z,88.61
2023-03-11T04:56:39.049Z,88.64
2023-03-11T04:59:08.982Z,88.54
2023-03-11T05:01:39.358Z,88.49
2023-03-11T05:04:09.081Z,89.11
2023-03-11T05:06:37.161Z,89.25
2023-03-11T05:09:05.863Z,90.30
2023-03-11T05:11:36.613Z,89.68
2023-03-11T05:14:04.740Z,89.41
2023-03-11T05:16:32.644Z,89.25
2023-03-11T05:19:23.146Z,89.90
2023-03-11T05:21:52.598Z,89.39
2023-03-11T05:24:20.568Z,88.97
2023-03-11T05:26:48.688Z,88.52
2023-03-11T05:29:17.361Z,88.33
2023-03-11T05:31:45.788Z,87.67
2023-03-11T05:34:13.930Z,87.60
2023-03-11T05:36:42.483Z,87.29
2023-03-11T05:39:10.328Z,86.88
2023-03-11T05:41:39.490Z,87.12
2023-03-11T05:44:07.156Z,86.89
2023-03-11T05:46:35.824Z,86.41
2023-03-11T05:49:05.912Z,86.02
2023-03-11T05:51:37.795Z,85.65
2023-03-11T05:54:11.588Z,85.34
2023-03-11T05:56:45.062Z,86.16
2023-03-11T05:59:16.350Z,85.32
2023-03-11T06:01:46.224Z,85.57
2023-03-11T06:04:15.833Z,85.45
2023-03-11T06:06:48.829Z,85.32
2023-03-11T06:09:19.313Z,85.99
2023-03-11T06:11:46.977Z,86.52
2023-03-11T06:14:16.944Z,88.67
2023-03-11T06:16:48.813Z,86.77
2023-03-11T06:19:20.685Z,87.31
2023-03-11T06:21:51.183Z,88.29
2023-03-11T06:24:19.210Z,87.64
2023-03-11T06:26:53.399Z,87.25
2023-03-11T06:29:24.620Z,87.30
2023-03-11T06:31:52.760Z,86.25
2023-03-11T06:34:20.519Z,86.93
2023-03-11T06:36:48.278Z,87.21
2023-03-11T06:39:16.142Z,87.13
2023-03-11T06:41:47.166Z,86.65
2023-03-11T06:44:15.191Z,86.54
2023-03-11T06:46:43.328Z,86.49
2023-03-11T06:49:11.205Z,86.27
2023-03-11T06:51:41.591Z,85.85
2023-03-11T06:54:10.370Z,84.46
2023-03-11T06:56:40.415Z,84.59
2023-03-11T06:59:09.763Z,85.47
2023-03-11T07:01:37.374Z,85.87
2023-03-11T07:04:07.349Z,86.86
2023-03-11T07:06:37.578Z,84.71
2023-03-11T07:09:10.994Z,84.71
2023-03-11T07:11:43.289Z,85.32
2023-03-11T07:14:15.815Z,85.89
2023-03-11T07:16:47.981Z,85.16
2023-03-11T07:19:26.752Z,84.96
2023-03-11T07:21:54.444Z,85.99
2023-03-11T07:24:22.689Z,85.89
2023-03-11T07:26:50.968Z,86.31
2023-03-11T07:29:20.218Z,85.22
2023-03-11T07:31:49.262Z,83.93
2023-03-11T07:34:17.907Z,83.90
2023-03-11T07:36:48.662Z,83.53
2023-03-11T07:39:18.030Z,82.96
2023-03-11T07:41:46.580Z,82.44
2023-03-11T07:44:14.628Z,82.65
2023-03-11T07:46:42.466Z,82.62
2023-03-11T07:49:10.248Z,82.46
2023-03-11T07:51:39.397Z,83.06
2023-03-11T07:54:07.068Z,84.05
2023-03-11T07:56:36.013Z,83.08
2023-03-11T07:59:03.941Z,83.18
2023-03-11T08:01:36.669Z,82.89
2023-03-11T08:04:06.209Z,83.83
2023-03-11T08:06:34.486Z,84.60
2023-03-11T08:09:04.329Z,84.85
2023-03-11T08:11:33.156Z,84.85
2023-03-11T08:14:01.107Z,85.11
2023-03-11T08:16:33.183Z,83.41
2023-03-11T08:19:00.978Z,84.23
2023-03-11T08:21:30.096Z,84.03
2023-03-11T08:23:59.583Z,86.23
2023-03-11T08:26:27.336Z,87.04
2023-03-11T08:28:55.384Z,84.70
2023-03-11T08:31:25.474Z,85.79
2023-03-11T08:33:59.600Z,84.92
2023-03-11T08:36:28.098Z,86.46
2023-03-11T08:38:55.700Z,87.75
2023-03-11T08:41:23.352Z,86.15
2023-03-11T08:43:52.400Z,85.00
2023-03-11T08:46:30.590Z,86.97
2023-03-11T08:49:01.312Z,86.86
2023-03-11T08:51:31.024Z,86.40
2023-03-11T08:54:02.526Z,88.09
2023-03-11T08:56:30.597Z,87.57
2023-03-11T08:58:58.302Z,88.36
2023-03-11T09:01:26.083Z,88.10
2023-03-11T09:03:53.621Z,88.48
2023-03-11T09:06:24.672Z,88.27
2023-03-11T09:08:55.536Z,87.56
2023-03-11T09:11:23.234Z,89.19
2023-03-11T09:13:53.700Z,90.41
2023-03-11T09:16:22.522Z,90.88
2023-03-11T09:18:50.226Z,89.25
2023-03-11T09:21:22.317Z,89.58
2023-03-11T09:23:49.915Z,90.18
2023-03-11T09:26:17.570Z,91.94
2023-03-11T09:28:49.275Z,92.57
2023-03-11T09:31:17.609Z,91.62
2023-03-11T09:33:45.626Z,90.42
2023-03-11T09:36:14.934Z,89.74
2023-03-11T09:38:42.751Z,89.90
2023-03-11T09:41:19.543Z,90.91
2023-03-11T09:44:00.419Z,90.94
2023-03-11T09:47:11.997Z,89.04
2023-03-11T09:49:46.669Z,89.17
2023-03-11T09:52:16.168Z,88.91
2023-03-11T09:54:52.744Z,90.51
2023-03-11T09:57:23.586Z,88.56
2023-03-11T09:59:51.198Z,89.17
2023-03-11T10:02:20.453Z,88.40
2023-03-11T10:05:08.853Z,89.11
2023-03-11T10:07:47.519Z,89.06
2023-03-11T10:10:15.280Z,88.67
2023-03-11T10:13:15.138Z,90.07
2023-03-11T10:16:11.088Z,90.39
2023-03-11T10:19:13.840Z,90.37
2023-03-11T10:21:47.720Z,90.83
2023-03-11T10:24:25.478Z,90.12
2023-03-11T10:26:58.264Z,89.05
2023-03-11T10:29:28.256Z,90.64
2023-03-11T10:32:15.672Z,90.98
2023-03-11T10:34:46.662Z,89.58
2023-03-11T10:37:48.709Z,89.26
2023-03-11T10:40:32.188Z,90.42
2023-03-11T10:43:02.350Z,89.94
2023-03-11T10:45:37.093Z,90.38
2023-03-11T10:48:15.236Z,91.50
2023-03-11T10:51:23.092Z,92.37
2023-03-11T10:53:52.934Z,91.75
2023-03-11T10:56:33.537Z,91.44
2023-03-11T10:59:02.018Z,90.33
2023-03-11T11:01:29.862Z,90.72
2023-03-11T11:03:59.199Z,90.52
2023-03-11T11:06:29.018Z,91.31
2023-03-11T11:09:22.009Z,91.36
2023-03-11T11:12:14.454Z,91.65
2023-03-11T11:14:50.517Z,91.82
2023-03-11T11:17:24.029Z,90.61
2023-03-11T11:19:51.841Z,90.55
2023-03-11T11:22:22.690Z,90.75
2023-03-11T11:24:55.876Z,91.15
2023-03-11T11:27:27.837Z,91.49
2023-03-11T11:30:08.204Z,92.55
2023-03-11T11:32:55.900Z,92.33
2023-03-11T11:35:24.752Z,91.39
2023-03-11T11:38:01.292Z,91.84
2023-03-11T11:40:30.941Z,90.60
2023-03-11T11:43:46.457Z,92.12
2023-03-11T11:46:36.519Z,92.99
2023-03-11T11:49:25.974Z,93.45
2023-03-11T11:52:08.321Z,93.50
2023-03-11T11:54:55.084Z,95.09
2023-03-11T11:57:22.983Z,93.10
2023-03-11T11:59:50.626Z,92.96
2023-03-11T12:02:20.833Z,92.06
2023-03-11T12:05:00.593Z,91.84
2023-03-11T12:08:01.374Z,91.37
2023-03-11T12:10:47.044Z,92.88
2023-03-11T12:13:43.109Z,93.39
2023-03-11T12:16:30.370Z,93.20
2023-03-11T12:19:10.769Z,92.56
2023-03-11T12:22:00.826Z,92.47
2023-03-11T12:24:43.430Z,92.89
2023-03-11T12:27:18.796Z,92.33
2023-03-11T12:29:47.779Z,93.61
2023-03-11T12:32:32.691Z,93.38
2023-03-11T12:35:10.911Z,93.18
2023-03-11T12:37:39.031Z,92.85
2023-03-11T12:40:43.718Z,95.28
2023-03-11T12:43:36.318Z,93.98
2023-03-11T12:46:05.172Z,93.96
2023-03-11T12:48:34.751Z,92.79
2023-03-11T12:51:03.029Z,93.47
2023-03-11T12:53:48.104Z,94.40
2023-03-11T12:56:27.700Z,95.06
2023-03-11T12:59:23.270Z,95.74
2023-03-11T13:01:58.574Z,94.42
2023-03-11T13:04:29.274Z,94.03
2023-03-11T13:07:12.801Z,94.10
2023-03-11T13:09:41.511Z,93.34
2023-03-11T13:12:46.645Z,92.07
2023-03-11T13:15:18.528Z,92.72
2023-03-11T13:18:02.477Z,93.10
2023-03-11T13:20:38.944Z,93.30
2023-03-11T13:23:09.893Z,93.04
2023-03-11T13:25:40.347Z,94.16
2023-03-11T13:28:33.702Z,93.67
2023-03-11T13:31:34.697Z,92.81
2023-03-11T13:34:04.787Z,92.11
2023-03-11T13:36:38.388Z,92.64
2023-03-11T13:39:11.433Z,91.95
2023-03-11T13:41:41.945Z,92.24
2023-03-11T13:44:17.252Z,92.48
2023-03-11T13:46:49.954Z,92.44
2023-03-11T13:49:54.492Z,93.99
2023-03-11T13:52:35.107Z,93.94
2023-03-11T13:55:09.316Z,93.13
2023-03-11T13:57:37.636Z,91.41
2023-03-11T14:00:17.863Z,91.93
2023-03-11T14:02:56.099Z,92.41
2023-03-11T14:05:25.611Z,92.02
2023-03-11T14:07:53.704Z,92.43
2023-03-11T14:10:25.409Z,91.43
2023-03-11T14:13:12.482Z,91.51
2023-03-11T14:15:44.651Z,91.90
2023-03-11T14:18:28.157Z,91.37
2023-03-11T14:20:56.811Z,91.57
2023-03-11T14:23:30.422Z,90.99
2023-03-11T14:25:59.596Z,90.76
2023-03-11T14:28:27.320Z,91.36
2023-03-11T14:31:00.677Z,90.73
2023-03-11T14:33:29.357Z,91.11
2023-03-11T14:36:02.760Z,90.67
2023-03-11T14:38:32.798Z,89.39
2023-03-11T14:41:01.578Z,88.80
2023-03-11T14:43:32.601Z,90.14
2023-03-11T14:46:00.444Z,89.58
2023-03-11T14:48:30.726Z,89.27
2023-03-11T14:50:59.039Z,89.77
2023-03-11T14:53:30.162Z,90.79
2023-03-11T14:56:08.112Z,89.55
2023-03-11T14:58:51.083Z,89.63
2023-03-11T15:01:26.555Z,90.54
2023-03-11T15:04:00.234Z,90.14
2023-03-11T15:06:30.753Z,89.61
2023-03-11T15:09:07.880Z,90.98
2023-03-11T15:11:49.657Z,91.49
2023-03-11T15:14:24.061Z,89.91
2023-03-11T15:16:55.746Z,89.82
2023-03-11T15:19:34.560Z,88.95
2023-03-11T15:22:41.040Z,88.44
2023-03-11T15:25:17.897Z,88.75
2023-03-11T15:27:45.533Z,89.58
2023-03-11T15:30:21.589Z,89.38
2023-03-11T15:32:50.098Z,88.29
2023-03-11T15:35:20.604Z,89.43
2023-03-11T15:37:49.688Z,89.12
2023-03-11T15:40:42.461Z,88.06
2023-03-11T15:43:24.862Z,88.77
2023-03-11T15:45:54.486Z,89.09
2023-03-11T15:48:22.367Z,87.98
2023-03-11T15:50:53.977Z,88.09
2023-03-11T15:53:24.552Z,89.12
2023-03-11T15:55:52.796Z,89.57
2023-03-11T15:58:20.534Z,88.40
2023-03-11T16:00:52.677Z,88.65
2023-03-11T16:03:20.425Z,88.21
2023-03-11T16:05:47.938Z,90.88
2023-03-11T16:08:15.692Z,90.12
2023-03-11T16:10:43.697Z,90.12
2023-03-11T16:13:15.040Z,89.48
2023-03-11T16:15:43.600Z,90.09
2023-03-11T16:18:11.185Z,90.51
2023-03-11T16:20:46.619Z,89.35
2023-03-11T16:23:25.133Z,91.97
2023-03-11T16:25:56.186Z,91.67
2023-03-11T16:28:24.435Z,91.44
2023-03-11T16:30:52.276Z,92.25
2023-03-11T16:33:22.029Z,91.65
2023-03-11T16:35:50.139Z,91.76
2023-03-11T16:38:23.289Z,94.06
2023-03-11T16:41:02.206Z,92.37
2023-03-11T16:43:30.059Z,94.14
2023-03-11T16:45:58.878Z,94.38
2023-03-11T16:48:26.485Z,94.05
2023-03-11T16:50:54.050Z,93.22
2023-03-11T16:53:22.291Z,93.23
2023-03-11T16:55:52.074Z,93.62
2023-03-11T16:58:19.912Z,93.54
2023-03-11T17:00:49.661Z,93.65
2023-03-11T17:03:21.541Z,93.26
2023-03-11T17:05:49.901Z,94.22
2023-03-11T17:08:18.494Z,93.48
2023-03-11T17:10:46.874Z,93.14
2023-03-11T17:13:16.520Z,93.59
2023-03-11T17:15:57.779Z,93.48
2023-03-11T17:18:28.418Z,93.79
2023-03-11T17:20:56.007Z,93.26
2023-03-11T17:23:23.583Z,92.85
2023-03-11T17:25:51.160Z,94.01
2023-03-11T17:28:19.149Z,93.79
2023-03-11T17:30:46.772Z,93.51
2023-03-11T17:33:23.270Z,92.54
2023-03-11T17:35:50.843Z,94.03
2023-03-11T17:38:18.342Z,94.31
2023-03-11T17:40:46.195Z,92.84
2023-03-11T17:43:13.732Z,93.27
2023-03-11T17:45:42.661Z,92.64
2023-03-11T17:48:10.593Z,94.55
2023-03-11T17:50:39.120Z,93.04
2023-03-11T17:53:06.759Z,92.98
2023-03-11T17:55:34.535Z,93.37
2023-03-11T17:58:02.544Z,93.42
2023-03-11T18:00:30.185Z,93.07
2023-03-11T18:02:58.283Z,92.22
2023-03-11T18:05:26.019Z,93.63
2023-03-11T18:07:53.706Z,92.92
2023-03-11T18:10:21.772Z,92.92
2023-03-11T18:12:50.903Z,92.83
2023-03-11T18:15:19.579Z,92.71
2023-03-11T18:17:48.964Z,93.87
2023-03-11T18:20:16.848Z,92.28
2023-03-11T18:22:46.701Z,92.48
2023-03-11T18:25:14.893Z,93.90
2023-03-11T18:27:42.537Z,93.38
2023-03-11T18:30:11.390Z,91.80
2023-03-11T18:32:58.905Z,93.78
2023-03-11T18:35:27.035Z,92.94
2023-03-11T18:37:57.655Z,92.75
2023-03-11T18:40:27.050Z,93.09
2023-03-11T18:42:54.770Z,94.10
2023-03-11T18:45:22.811Z,93.04
2023-03-11T18:47:50.839Z,94.42
2023-03-11T18:50:21.720Z,93.39
2023-03-11T18:52:53.431Z,94.01
2023-03-11T18:55:21.080Z,94.42
2023-03-11T18:57:49.119Z,95.76
2023-03-11T19:00:22.421Z,93.89
2023-03-11T19:02:53.801Z,94.26
2023-03-11T19:05:21.783Z,94.03
2023-03-11T19:07:49.631Z,93.45
2023-03-11T19:10:20.098Z,93.87
2023-03-11T19:12:47.804Z,93.73
2023-03-11T19:15:15.477Z,92.83
2023-03-11T19:17:45.508Z,92.96
2023-03-11T19:20:15.537Z,92.35
2023-03-11T19:22:43.131Z,92.38
2023-03-11T19:25:10.683Z,93.53
2023-03-11T19:27:40.357Z,93.33
2023-03-11T19:30:09.973Z,93.39
2023-03-11T19:32:55.481Z,92.92
2023-03-11T19:35:23.515Z,92.90
2023-03-11T19:37:57.434Z,94.47
2023-03-11T19:40:25.185Z,94.26
2023-03-11T19:42:52.791Z,94.22
2023-03-11T19:45:21.299Z,94.18
2023-03-11T19:47:51.585Z,94.11
2023-03-11T19:50:19.269Z,93.66
2023-03-11T19:52:49.322Z,93.21
2023-03-11T19:55:17.048Z,92.73
2023-03-11T19:57:45.189Z,92.17
2023-03-11T20:00:13.195Z,93.65
2023-03-11T20:02:41.803Z,94.26
2023-03-11T20:05:10.038Z,94.02
2023-03-11T20:07:37.644Z,93.60
2023-03-11T20:10:06.407Z,93.29
2023-03-11T20:12:34.618Z,93.13
2023-03-11T20:15:03.281Z,92.91
2023-03-11T20:17:32.024Z,93.98
2023-03-11T20:20:00.356Z,93.70
2023-03-11T20:22:28.373Z,93.36
2023-03-11T20:24:56.498Z,93.21
2023-03-11T20:27:24.103Z,92.72
2023-03-11T20:29:51.843Z,92.77
2023-03-11T20:32:20.347Z,92.71
2023-03-11T20:34:48.055Z,91.13
2023-03-11T20:37:18.300Z,93.12
2023-03-11T20:39:46.220Z,91.75
2023-03-11T20:42:13.822Z,93.71
2023-03-11T20:44:46.146Z,93.78
2023-03-11T20:47:14.503Z,93.34
2023-03-11T20:49:44.301Z,93.08
2023-03-11T20:52:13.442Z,93.28
2023-03-11T20:54:45.652Z,92.05
2023-03-11T20:57:14.619Z,92.50
2023-03-11T20:59:42.177Z,91.24
2023-03-11T21:02:11.602Z,91.85
2023-03-11T21:04:41.326Z,91.97
2023-03-11T21:07:09.013Z,92.08
2023-03-11T21:09:37.807Z,93.47
2023-03-11T21:12:05.913Z,92.90
2023-03-11T21:14:33.653Z,92.69
2023-03-11T21:17:01.421Z,92.35
2023-03-11T21:19:29.448Z,92.77
2023-03-11T21:21:57.649Z,93.35
2023-03-11T21:24:25.278Z,92.82
2023-03-11T21:26:52.875Z,93.49
2023-03-11T21:29:23.164Z,93.47
2023-03-11T21:31:50.796Z,93.73
2023-03-11T21:34:18.427Z,94.70
2023-03-11T21:36:46.795Z,94.07
2023-03-11T21:39:15.496Z,95.02
2023-03-11T21:41:43.082Z,95.59
2023-03-11T21:44:10.808Z,93.70
2023-03-11T21:46:38.903Z,95.48
2023-03-11T21:49:06.848Z,96.29
2023-03-11T21:51:35.727Z,95.48
2023-03-11T21:54:05.470Z,96.37
2023-03-11T21:56:35.207Z,95.62
2023-03-11T21:59:03.983Z,95.30
2023-03-11T22:01:34.259Z,94.65
2023-03-11T22:04:03.093Z,94.74
2023-03-11T22:06:33.659Z,93.68
2023-03-11T22:09:01.740Z,96.14
2023-03-11T22:11:31.107Z,94.90
2023-03-11T22:14:00.938Z,94.99
2023-03-11T22:16:28.956Z,95.47
2023-03-11T22:18:56.686Z,96.04
2023-03-11T22:21:24.306Z,95.26
2023-03-11T22:23:51.877Z,95.64
2023-03-11T22:26:20.313Z,96.04
2023-03-11T22:28:47.972Z,95.95
2023-03-11T22:31:15.791Z,95.17
2023-03-11T22:33:43.676Z,94.45
2023-03-11T22:36:11.420Z,93.97
2023-03-11T22:38:42.301Z,93.28
2023-03-11T22:41:09.907Z,92.68
2023-03-11T22:43:38.029Z,93.10
2023-03-11T22:46:05.982Z,92.84
2023-03-11T22:48:33.892Z,93.32
2023-03-11T22:51:02.153Z,92.42
2023-03-11T22:53:31.046Z,92.09
2023-03-11T22:55:58.641Z,91.48
2023-03-11T22:58:26.368Z,92.26
2023-03-11T23:00:53.980Z,92.03
2023-03-11T23:03:21.553Z,92.97
2023-03-11T23:05:49.191Z,93.93
2023-03-11T23:08:17.859Z,94.62
2023-03-11T23:10:46.816Z,92.92
2023-03-11T23:13:15.280Z,91.68
2023-03-11T23:15:43.692Z,94.56
2023-03-11T23:18:15.991Z,93.27
2023-03-11T23:20:43.797Z,92.87
2023-03-11T23:23:12.225Z,93.42
2023-03-11T23:25:40.666Z,93.29
2023-03-11T23:28:09.854Z,93.37
2023-03-11T23:30:37.590Z,92.81
2023-03-11T23:33:06.265Z,92.36
2023-03-11T23:35:34.177Z,93.07
2023-03-11T23:38:01.721Z,93.03
2023-03-11T23:40:29.649Z,93.70
2023-03-11T23:42:57.725Z,93.19
2023-03-11T23:45:25.476Z,92.21
2023-03-11T23:47:53.257Z,94.18
2023-03-11T23:50:21.225Z,93.63
2023-03-11T23:52:49.603Z,92.81
2023-03-11T23:55:17.539Z,92.19
2023-03-11T23:57:46.102Z,94.02
